createdAt,value
2023-05-20T00:00:11.761Z,66.04
2023-05-20T00:01:11.743Z,66.07
2023-05-20T00:02:11.683Z,66.07
2023-05-20T00:03:11.788Z,66.17
2023-05-20T00:04:11.977Z,66.38
2023-05-20T00:05:11.661Z,66.58
2023-05-20T00:06:11.591Z,66.58
2023-05-20T00:07:11.592Z,66.58
2023-05-20T00:08:11.578Z,66.68
2023-05-20T00:09:11.619Z,66.78
2023-05-20T00:10:11.618Z,66.78
2023-05-20T00:11:11.544Z,66.99
2023-05-20T00:12:11.560Z,67.08
2023-05-20T00:13:11.513Z,67.08
2023-05-20T00:14:11.519Z,67.19
2023-05-20T00:15:11.545Z,67.08
2023-05-20T00:16:11.813Z,67.19
2023-05-20T00:17:11.518Z,67.29
2023-05-20T00:18:11.573Z,67.29
2023-05-20T00:19:11.487Z,67.49
2023-05-20T00:20:11.456Z,67.52
2023-05-20T00:21:11.465Z,67.60
2023-05-20T00:22:11.447Z,67.63
2023-05-20T00:23:11.424Z,67.63
2023-05-20T00:24:11.449Z,67.63
2023-05-20T00:25:11.466Z,67.83
2023-05-20T00:26:11.399Z,67.83
2023-05-20T00:27:11.384Z,67.83
2023-05-20T00:28:11.353Z,67.93
2023-05-20T00:29:11.400Z,68.13
2023-05-20T00:30:11.385Z,68.04
2023-05-20T00:31:11.359Z,68.24
2023-05-20T00:32:11.371Z,68.13
2023-05-20T00:33:11.373Z,68.24
2023-05-20T00:34:11.284Z,68.24
2023-05-20T00:35:11.279Z,68.44
2023-05-20T00:36:11.278Z,68.44
2023-05-20T00:37:11.301Z,68.44
2023-05-20T00:38:11.264Z,68.54
2023-05-20T00:39:11.280Z,68.75
2023-05-20T00:40:12.970Z,68.75
2023-05-20T00:41:11.235Z,69.06
2023-05-20T00:42:11.296Z,68.95
2023-05-20T00:43:11.533Z,68.95
2023-05-20T00:44:11.220Z,68.85
2023-05-20T00:45:11.172Z,69.15
2023-05-20T00:46:11.232Z,69.15
2023-05-20T00:47:11.173Z,69.26
2023-05-20T00:48:11.232Z,69.49
2023-05-20T00:49:11.131Z,69.59
2023-05-20T00:50:11.207Z,69.59
2023-05-20T00:51:11.143Z,69.80
2023-05-20T00:52:11.095Z,69.90
2023-05-20T00:53:11.095Z,69.90
2023-05-20T00:54:11.086Z,69.90
2023-05-20T00:55:11.070Z,69.90
2023-05-20T00:56:11.077Z,69.90
2023-05-20T00:57:11.151Z,70.10
2023-05-20T00:58:11.108Z,70.21
2023-05-20T00:59:11.035Z,70.21
2023-05-20T01:00:11.041Z,70.21
2023-05-20T01:01:11.040Z,70.21
2023-05-20T01:02:11.055Z,70.21
2023-05-20T01:03:11.055Z,70.41
2023-05-20T01:04:11.012Z,70.41
2023-05-20T01:05:11.013Z,70.51
2023-05-20T01:06:10.990Z,70.61
2023-05-20T01:07:10.946Z,70.51
2023-05-20T01:08:10.962Z,70.82
2023-05-20T01:09:11.103Z,70.92
2023-05-20T01:10:10.924Z,70.92
2023-05-20T01:11:10.915Z,70.85
2023-05-20T01:12:11.451Z,71.02
2023-05-20T01:13:10.917Z,71.02
2023-05-20T01:14:10.896Z,71.12
2023-05-20T01:15:10.898Z,71.36
2023-05-20T01:16:10.954Z,71.46
2023-05-20T01:17:10.843Z,71.46
2023-05-20T01:18:10.976Z,71.67
2023-05-20T01:19:10.896Z,71.67
2023-05-20T01:20:10.847Z,71.77
2023-05-20T01:21:10.816Z,71.77
2023-05-20T01:22:10.788Z,71.97
2023-05-20T01:23:10.964Z,71.97
2023-05-20T01:24:11.012Z,72.08
2023-05-20T01:25:10.746Z,72.08
2023-05-20T01:26:10.731Z,72.17
2023-05-20T01:27:10.753Z,72.28
2023-05-20T01:28:10.765Z,72.17
2023-05-20T01:29:10.899Z,72.38
2023-05-20T01:30:10.777Z,72.48
2023-05-20T01:31:10.722Z,72.48
2023-05-20T01:32:10.691Z,72.69
2023-05-20T01:33:10.762Z,72.69
2023-05-20T01:34:10.652Z,72.69
2023-05-20T01:35:10.732Z,72.79
2023-05-20T01:36:10.628Z,72.79
2023-05-20T01:37:12.004Z,72.99
2023-05-20T01:38:10.621Z,73.10
2023-05-20T01:39:10.612Z,73.10
2023-05-20T01:40:10.640Z,73.19
2023-05-20T01:41:10.577Z,73.30
2023-05-20T01:42:10.585Z,73.30
2023-05-20T01:43:10.712Z,73.33
2023-05-20T01:44:10.549Z,73.50
2023-05-20T01:45:10.522Z,73.60
2023-05-20T01:46:10.678Z,73.74
2023-05-20T01:47:10.505Z,73.84
2023-05-20T01:48:10.749Z,73.71
2023-05-20T01:49:10.510Z,73.94
2023-05-20T01:50:10.730Z,74.05
2023-05-20T01:51:10.555Z,74.15
2023-05-20T01:52:10.481Z,74.05
2023-05-20T01:53:11.338Z,74.15
2023-05-20T01:54:10.483Z,74.15
2023-05-20T01:55:10.465Z,74.25
2023-05-20T01:56:10.435Z,74.25
2023-05-20T01:57:10.568Z,74.35
2023-05-20T01:58:10.424Z,74.45
2023-05-20T01:59:10.409Z,74.55
2023-05-20T02:00:10.392Z,74.66
2023-05-20T02:01:12.025Z,74.66
2023-05-20T02:02:10.405Z,74.76
2023-05-20T02:03:10.372Z,74.76
2023-05-20T02:04:10.352Z,74.86
2023-05-20T02:05:10.351Z,74.96
2023-05-20T02:06:10.366Z,74.96
2023-05-20T02:07:10.318Z,74.96
2023-05-20T02:08:10.379Z,75.16
2023-05-20T02:09:10.306Z,75.16
2023-05-20T02:10:10.289Z,75.16
2023-05-20T02:11:10.296Z,75.27
2023-05-20T02:12:11.083Z,75.48
2023-05-20T02:13:10.250Z,75.48
2023-05-20T02:14:10.235Z,75.48
2023-05-20T02:15:10.262Z,75.57
2023-05-20T02:16:10.244Z,75.78
2023-05-20T02:17:10.198Z,75.78
2023-05-20T02:18:10.233Z,75.78
2023-05-20T02:19:10.305Z,75.78
2023-05-20T02:20:10.312Z,75.98
2023-05-20T02:21:10.154Z,75.98
2023-05-20T02:22:10.208Z,76.19
2023-05-20T02:23:10.168Z,76.29
2023-05-20T02:24:10.253Z,76.39
2023-05-20T02:25:10.143Z,76.39
2023-05-20T02:26:10.148Z,76.39
2023-05-20T02:27:10.091Z,76.50
2023-05-20T02:28:10.120Z,76.63
2023-05-20T02:29:10.159Z,76.59
2023-05-20T02:30:10.238Z,76.59
2023-05-20T02:31:10.044Z,76.59
2023-05-20T02:32:10.063Z,76.70
2023-05-20T02:33:10.094Z,76.70
2023-05-20T02:34:10.282Z,76.80
2023-05-20T02:35:10.040Z,76.80
2023-05-20T02:36:10.023Z,76.80
2023-05-20T02:37:10.049Z,77.00
2023-05-20T02:38:10.012Z,77.00
2023-05-20T02:39:09.987Z,77.00
2023-05-20T02:40:10.052Z,77.00
2023-05-20T02:41:09.955Z,77.00
2023-05-20T02:42:09.940Z,77.14
2023-05-20T02:43:09.931Z,77.25
2023-05-20T02:44:09.915Z,77.34
2023-05-20T02:45:09.913Z,77.34
2023-05-20T02:46:10.037Z,77.41
2023-05-20T02:47:10.013Z,77.45
2023-05-20T02:48:09.925Z,77.55
2023-05-20T02:49:09.872Z,77.65
2023-05-20T02:50:09.863Z,77.75
2023-05-20T02:51:09.838Z,77.65
2023-05-20T02:52:09.859Z,77.75
2023-05-20T02:53:09.811Z,77.86
2023-05-20T02:54:09.825Z,77.75
2023-05-20T02:55:09.812Z,77.96
2023-05-20T02:56:09.838Z,77.96
2023-05-20T02:57:09.822Z,78.16
2023-05-20T02:58:09.777Z,78.16
2023-05-20T02:59:10.040Z,78.27
2023-05-20T03:00:09.827Z,78.16
2023-05-20T03:01:09.792Z,78.47
2023-05-20T03:02:09.740Z,78.47
2023-05-20T03:03:09.758Z,78.37
2023-05-20T03:04:09.776Z,78.57
2023-05-20T03:05:09.722Z,78.67
2023-05-20T03:06:09.701Z,78.77
2023-05-20T03:07:09.706Z,78.77
2023-05-20T03:08:09.709Z,78.98
2023-05-20T03:09:09.679Z,78.88
2023-05-20T03:10:09.719Z,78.98
2023-05-20T03:11:09.692Z,78.98
2023-05-20T03:12:09.668Z,78.98
2023-05-20T03:13:09.650Z,79.08
2023-05-20T03:14:09.608Z,79.18
2023-05-20T03:15:09.601Z,79.18
2023-05-20T03:16:09.734Z,79.12
2023-05-20T03:17:09.571Z,79.28
2023-05-20T03:18:09.589Z,79.32
2023-05-20T03:19:09.575Z,79.39
2023-05-20T03:20:09.546Z,79.28
2023-05-20T03:21:09.558Z,79.18
2023-05-20T03:22:09.532Z,79.39
2023-05-20T03:23:09.538Z,79.39
2023-05-20T03:24:09.512Z,79.39
2023-05-20T03:25:10.457Z,79.49
2023-05-20T03:26:09.491Z,79.52
2023-05-20T03:27:09.482Z,79.49
2023-05-20T03:28:09.461Z,79.49
2023-05-20T03:29:09.449Z,79.59
2023-05-20T03:30:09.474Z,79.59
2023-05-20T03:31:09.452Z,79.49
2023-05-20T03:32:10.757Z,79.59
2023-05-20T03:33:09.446Z,79.69
2023-05-20T03:34:09.419Z,79.69
2023-05-20T03:35:09.435Z,79.93
2023-05-20T03:36:09.398Z,80.04
2023-05-20T03:37:09.349Z,79.93
2023-05-20T03:38:09.360Z,80.04
2023-05-20T03:39:09.341Z,80.10
2023-05-20T03:40:09.336Z,80.10
2023-05-20T03:41:09.359Z,80.30
2023-05-20T03:42:09.400Z,80.30
2023-05-20T03:43:09.292Z,80.34
2023-05-20T03:44:09.307Z,80.34
2023-05-20T03:45:09.279Z,80.34
2023-05-20T03:46:09.337Z,80.34
2023-05-20T03:47:09.271Z,80.55
2023-05-20T03:48:09.300Z,80.55
2023-05-20T03:49:09.230Z,80.44
2023-05-20T03:50:09.215Z,80.44
2023-05-20T03:51:09.223Z,80.55
2023-05-20T03:52:09.196Z,80.65
2023-05-20T03:53:09.215Z,80.55
2023-05-20T03:54:09.175Z,80.75
2023-05-20T03:55:09.184Z,80.75
2023-05-20T03:56:09.152Z,80.75
2023-05-20T03:57:09.139Z,80.75
2023-05-20T03:58:09.161Z,80.96
2023-05-20T03:59:10.002Z,81.05
2023-05-20T04:00:09.119Z,80.96
2023-05-20T04:01:09.127Z,81.16
2023-05-20T04:02:09.174Z,81.37
2023-05-20T04:03:09.187Z,81.46
2023-05-20T04:04:09.164Z,81.46
2023-05-20T04:05:09.063Z,81.37
2023-05-20T04:06:09.090Z,81.37
2023-05-20T04:07:09.139Z,81.37
2023-05-20T04:08:09.034Z,81.26
2023-05-20T04:09:09.067Z,81.46
2023-05-20T04:10:09.023Z,81.37
2023-05-20T04:11:09.014Z,81.37
2023-05-20T04:12:08.996Z,81.43
2023-05-20T04:13:08.984Z,81.43
2023-05-20T04:14:08.968Z,81.43
2023-05-20T04:15:08.999Z,81.32
2023-05-20T04:16:08.989Z,81.12
2023-05-20T04:17:09.368Z,81.02
2023-05-20T04:18:08.969Z,81.12
2023-05-20T04:19:08.987Z,81.02
2023-05-20T04:20:08.887Z,81.02
2023-05-20T04:21:08.894Z,80.91
2023-05-20T04:22:08.881Z,80.91
2023-05-20T04:23:08.892Z,80.91
2023-05-20T04:24:08.901Z,80.82
2023-05-20T04:25:08.843Z,80.91
2023-05-20T04:26:08.857Z,80.71
2023-05-20T04:27:08.878Z,80.88
2023-05-20T04:28:08.840Z,80.78
2023-05-20T04:29:08.859Z,80.68
2023-05-20T04:30:08.798Z,80.68
2023-05-20T04:31:08.806Z,80.68
2023-05-20T04:32:08.892Z,80.57
2023-05-20T04:33:08.846Z,80.68
2023-05-20T04:34:08.761Z,80.68
2023-05-20T04:35:08.766Z,80.68
2023-05-20T04:36:08.761Z,80.57
2023-05-20T04:37:08.784Z,80.68
2023-05-20T04:38:08.721Z,80.57
2023-05-20T04:39:08.726Z,80.47
2023-05-20T04:40:08.702Z,80.43
2023-05-20T04:41:08.705Z,80.33
2023-05-20T04:42:08.948Z,80.23
2023-05-20T04:43:08.671Z,80.23
2023-05-20T04:44:08.638Z,80.13
2023-05-20T04:45:08.681Z,80.02
2023-05-20T04:46:08.667Z,80.02
2023-05-20T04:47:08.629Z,79.93
2023-05-20T04:48:08.751Z,79.82
2023-05-20T04:49:08.653Z,79.79
2023-05-20T04:50:08.599Z,79.68
2023-05-20T04:51:08.588Z,79.58
2023-05-20T04:52:08.581Z,79.58
2023-05-20T04:53:08.563Z,79.38
2023-05-20T04:54:08.554Z,79.38
2023-05-20T04:55:08.528Z,79.27
2023-05-20T04:56:08.549Z,79.27
2023-05-20T04:57:08.518Z,79.03
2023-05-20T04:58:08.546Z,78.93
2023-05-20T04:59:08.522Z,78.83
2023-05-20T05:00:08.486Z,78.73
2023-05-20T05:01:08.548Z,78.53
2023-05-20T05:02:08.458Z,78.28
2023-05-20T05:03:08.504Z,78.28
2023-05-20T05:04:08.489Z,78.08
2023-05-20T05:05:08.500Z,77.98
2023-05-20T05:06:08.436Z,77.84
2023-05-20T05:07:08.423Z,77.87
2023-05-20T05:08:08.397Z,77.64
2023-05-20T05:09:08.412Z,77.44
2023-05-20T05:10:08.402Z,77.13
2023-05-20T05:11:08.368Z,76.68
2023-05-20T05:12:08.373Z,76.38
2023-05-20T05:13:08.364Z,76.07
2023-05-20T05:14:08.342Z,75.84
2023-05-20T05:15:08.325Z,75.73
2023-05-20T05:16:08.372Z,75.53
2023-05-20T05:17:08.381Z,75.33
2023-05-20T05:18:08.372Z,75.19
2023-05-20T05:19:08.377Z,75.12
2023-05-20T05:20:08.285Z,74.79
2023-05-20T05:21:08.287Z,74.88
2023-05-20T05:22:08.253Z,74.58
2023-05-20T05:23:08.283Z,74.88
2023-05-20T05:24:08.240Z,74.88
2023-05-20T05:25:08.242Z,74.88
2023-05-20T05:26:08.225Z,74.79
2023-05-20T05:27:08.231Z,74.68
2023-05-20T05:28:08.189Z,74.79
2023-05-20T05:29:10.299Z,74.99
2023-05-20T05:30:08.195Z,74.88
2023-05-20T05:31:08.203Z,74.79
2023-05-20T05:32:08.228Z,74.88
2023-05-20T05:33:08.271Z,74.88
2023-05-20T05:34:08.131Z,74.79
2023-05-20T05:35:08.462Z,74.88
2023-05-20T05:36:08.129Z,74.88
2023-05-20T05:37:08.095Z,74.99
2023-05-20T05:38:08.098Z,75.09
2023-05-20T05:39:08.108Z,74.99
2023-05-20T05:40:08.083Z,75.19
2023-05-20T05:41:08.058Z,75.33
2023-05-20T05:42:08.069Z,75.43
2023-05-20T05:43:08.033Z,75.53
2023-05-20T05:44:08.258Z,75.63
2023-05-20T05:45:08.048Z,75.73
2023-05-20T05:46:07.988Z,75.73
2023-05-20T05:47:08.078Z,75.73
2023-05-20T05:48:08.089Z,75.84
2023-05-20T05:49:07.987Z,75.63
2023-05-20T05:50:08.012Z,75.70
2023-05-20T05:51:07.964Z,75.70
2023-05-20T05:52:07.944Z,75.70
2023-05-20T05:53:07.997Z,75.60
2023-05-20T05:54:07.917Z,75.70
2023-05-20T05:55:07.915Z,75.70
2023-05-20T05:56:07.883Z,75.60
2023-05-20T05:57:07.977Z,75.70
2023-05-20T05:58:07.877Z,75.70
2023-05-20T05:59:07.876Z,75.70
2023-05-20T06:00:07.882Z,75.70
2023-05-20T06:01:07.887Z,75.70
2023-05-20T06:02:07.896Z,75.70
2023-05-20T06:03:07.931Z,75.60
2023-05-20T06:04:07.976Z,75.60
2023-05-20T06:05:07.868Z,75.70
2023-05-20T06:06:07.826Z,75.46
2023-05-20T06:07:07.795Z,75.36
2023-05-20T06:08:07.787Z,75.26
2023-05-20T06:09:07.781Z,75.26
2023-05-20T06:10:07.753Z,75.26
2023-05-20T06:11:07.799Z,75.36
2023-05-20T06:12:07.727Z,75.36
2023-05-20T06:13:07.746Z,75.05
2023-05-20T06:14:07.698Z,75.05
2023-05-20T06:15:07.727Z,75.05
2023-05-20T06:16:08.680Z,75.05
2023-05-20T06:17:07.880Z,74.95
2023-05-20T06:18:07.738Z,75.05
2023-05-20T06:19:07.715Z,75.05
2023-05-20T06:20:07.642Z,75.16
2023-05-20T06:21:07.691Z,75.12
2023-05-20T06:22:07.648Z,74.95
2023-05-20T06:23:07.629Z,75.05
2023-05-20T06:24:07.584Z,74.92
2023-05-20T06:25:07.601Z,74.71
2023-05-20T06:26:07.576Z,74.82
2023-05-20T06:27:07.564Z,74.82
2023-05-20T06:28:07.562Z,74.82
2023-05-20T06:29:07.565Z,74.71
2023-05-20T06:30:07.584Z,74.62
2023-05-20T06:31:07.642Z,74.71
2023-05-20T06:32:07.498Z,74.62
2023-05-20T06:33:07.543Z,74.62
2023-05-20T06:34:07.497Z,74.62
2023-05-20T06:35:07.513Z,74.68
2023-05-20T06:36:07.481Z,74.48
2023-05-20T06:37:07.475Z,74.38
2023-05-20T06:38:07.590Z,74.38
2023-05-20T06:39:07.460Z,74.17
2023-05-20T06:40:07.475Z,73.87
2023-05-20T06:41:07.454Z,73.97
2023-05-20T06:42:07.393Z,74.17
2023-05-20T06:43:07.400Z,74.07
2023-05-20T06:44:07.448Z,74.07
2023-05-20T06:45:07.411Z,74.07
2023-05-20T06:46:07.400Z,74.17
2023-05-20T06:47:07.384Z,74.27
2023-05-20T06:48:07.420Z,74.17
2023-05-20T06:49:07.370Z,73.97
2023-05-20T06:50:07.328Z,73.97
2023-05-20T06:51:08.057Z,74.07
2023-05-20T06:52:07.314Z,73.97
2023-05-20T06:53:07.294Z,73.97
2023-05-20T06:54:07.281Z,73.93
2023-05-20T06:55:07.269Z,73.63
2023-05-20T06:56:07.621Z,73.73
2023-05-20T06:57:07.270Z,73.73
2023-05-20T06:58:07.255Z,73.83
2023-05-20T06:59:07.293Z,73.83
2023-05-20T07:00:07.218Z,73.73
2023-05-20T07:01:07.210Z,73.83
2023-05-20T07:02:07.318Z,73.73
2023-05-20T07:03:07.490Z,73.83
2023-05-20T07:04:07.233Z,73.63
2023-05-20T07:05:07.201Z,73.73
2023-05-20T07:06:07.202Z,73.63
2023-05-20T07:07:07.174Z,73.73
2023-05-20T07:08:07.178Z,73.63
2023-05-20T07:09:07.160Z,73.63
2023-05-20T07:10:07.137Z,73.29
2023-05-20T07:11:07.099Z,73.53
2023-05-20T07:12:07.098Z,73.39
2023-05-20T07:13:07.117Z,73.39
2023-05-20T07:14:07.575Z,73.22
2023-05-20T07:15:07.074Z,73.29
2023-05-20T07:16:07.110Z,73.39
2023-05-20T07:17:07.090Z,73.39
2023-05-20T07:18:07.063Z,73.49
2023-05-20T07:19:07.029Z,73.39
2023-05-20T07:20:07.045Z,73.19
2023-05-20T07:21:06.987Z,73.19
2023-05-20T07:22:07.040Z,73.09
2023-05-20T07:23:06.989Z,73.19
2023-05-20T07:24:06.960Z,73.09
2023-05-20T07:25:07.000Z,72.99
2023-05-20T07:26:06.949Z,72.99
2023-05-20T07:27:06.948Z,72.99
2023-05-20T07:28:06.934Z,72.99
2023-05-20T07:29:06.944Z,72.55
2023-05-20T07:30:06.989Z,72.34
2023-05-20T07:31:06.896Z,72.11
2023-05-20T07:32:07.019Z,71.91
2023-05-20T07:33:06.918Z,71.50
2023-05-20T07:34:06.849Z,71.30
2023-05-20T07:35:06.920Z,71.20
2023-05-20T07:36:09.110Z,71.20
2023-05-20T07:37:06.839Z,70.86
2023-05-20T07:38:06.834Z,70.86
2023-05-20T07:39:10.294Z,71.06
2023-05-20T07:40:06.840Z,70.96
2023-05-20T07:41:06.789Z,70.65
2023-05-20T07:42:06.785Z,70.22
2023-05-20T07:43:06.775Z,70.12
2023-05-20T07:44:06.785Z,69.78
2023-05-20T07:45:06.766Z,69.27
2023-05-20T07:46:06.787Z,69.48
2023-05-20T07:47:06.733Z,69.58
2023-05-20T07:48:06.800Z,69.78
2023-05-20T07:49:06.776Z,69.78
2023-05-20T07:50:06.730Z,69.78
2023-05-20T07:51:06.688Z,69.89
2023-05-20T07:52:06.695Z,69.98
2023-05-20T07:53:06.706Z,69.38
2023-05-20T07:54:06.665Z,68.94
2023-05-20T07:55:06.637Z,68.94
2023-05-20T07:56:06.666Z,69.04
2023-05-20T07:57:06.797Z,68.84
2023-05-20T07:58:06.715Z,68.91
2023-05-20T07:59:06.615Z,68.40
2023-05-20T08:00:06.603Z,68.71
2023-05-20T08:01:06.575Z,68.37
2023-05-20T08:02:06.729Z,67.46
2023-05-20T08:03:06.683Z,67.56
2023-05-20T08:04:06.677Z,67.80
2023-05-20T08:05:06.544Z,67.97
2023-05-20T08:06:06.539Z,68.07
2023-05-20T08:07:06.604Z,67.76
2023-05-20T08:08:06.485Z,67.33
2023-05-20T08:09:06.492Z,67.23
2023-05-20T08:10:06.513Z,66.89
2023-05-20T08:11:06.492Z,66.69
2023-05-20T08:12:06.497Z,67.30
2023-05-20T08:13:06.443Z,67.10
2023-05-20T08:14:06.507Z,66.16
2023-05-20T08:15:06.443Z,65.75
2023-05-20T08:16:06.418Z,65.62
2023-05-20T08:17:06.482Z,65.32
2023-05-20T08:18:06.507Z,65.52
2023-05-20T08:19:06.444Z,65.52
2023-05-20T08:20:06.384Z,65.95
2023-05-20T08:21:08.132Z,65.45
2023-05-20T08:22:06.363Z,65.65
2023-05-20T08:23:06.351Z,65.52
2023-05-20T08:24:06.374Z,65.12
2023-05-20T08:25:06.348Z,65.32
2023-05-20T08:26:06.307Z,65.22
2023-05-20T08:27:06.575Z,65.72
2023-05-20T08:28:06.313Z,65.32
2023-05-20T08:29:06.306Z,65.22
2023-05-20T08:30:06.281Z,65.75
2023-05-20T08:31:06.374Z,65.85
2023-05-20T08:32:06.446Z,65.75
2023-05-20T08:33:06.274Z,65.75
2023-05-20T08:34:06.258Z,66.25
2023-05-20T08:35:06.241Z,66.73
2023-05-20T08:36:06.228Z,66.19
2023-05-20T08:37:06.186Z,64.95
2023-05-20T08:38:06.243Z,64.25
2023-05-20T08:39:06.210Z,64.15
2023-05-20T08:40:06.211Z,64.15
2023-05-20T08:41:07.075Z,64.35
2023-05-20T08:42:06.150Z,64.18
2023-05-20T08:43:06.140Z,64.48
2023-05-20T08:44:06.360Z,64.78
2023-05-20T08:45:06.195Z,64.89
2023-05-20T08:46:06.212Z,65.29
2023-05-20T08:47:06.113Z,65.19
2023-05-20T08:48:06.142Z,64.58
2023-05-20T08:49:06.109Z,64.89
2023-05-20T08:50:06.085Z,65.19
2023-05-20T08:51:06.072Z,65.09
2023-05-20T08:52:06.045Z,64.48
2023-05-20T08:53:06.075Z,64.48
2023-05-20T08:54:06.060Z,64.15
2023-05-20T08:55:05.999Z,64.35
2023-05-20T08:56:05.989Z,64.12
2023-05-20T08:57:06.013Z,63.82
2023-05-20T08:58:05.996Z,63.51
2023-05-20T08:59:05.970Z,63.71
2023-05-20T09:00:06.001Z,63.92
2023-05-20T09:01:05.952Z,64.02
2023-05-20T09:02:06.120Z,63.34
2023-05-20T09:03:05.962Z,63.95
2023-05-20T09:04:06.575Z,63.62
2023-05-20T09:05:06.002Z,63.18
2023-05-20T09:06:05.914Z,62.48
2023-05-20T09:07:05.935Z,61.85
2023-05-20T09:08:05.872Z,61.08
2023-05-20T09:09:05.865Z,61.82
2023-05-20T09:10:06.630Z,62.39
2023-05-20T09:11:05.845Z,61.79
2023-05-20T09:12:05.872Z,61.08
2023-05-20T09:13:05.870Z,59.95
2023-05-20T09:14:05.813Z,60.05
2023-05-20T09:15:06.076Z,60.75
2023-05-20T09:16:05.894Z,60.78
2023-05-20T09:17:05.800Z,60.65
2023-05-20T09:18:05.826Z,60.02
2023-05-20T09:19:05.798Z,59.29
2023-05-20T09:20:05.775Z,58.79
2023-05-20T09:21:06.004Z,58.79
2023-05-20T09:22:05.729Z,58.99
2023-05-20T09:23:05.705Z,58.36
2023-05-20T09:24:05.739Z,58.76
2023-05-20T09:25:05.809Z,58.33
2023-05-20T09:26:05.709Z,58.03
2023-05-20T09:27:05.695Z,57.63
2023-05-20T09:28:05.682Z,57.43
2023-05-20T09:29:05.732Z,57.96
2023-05-20T09:30:05.672Z,58.13
2023-05-20T09:31:05.622Z,58.26
2023-05-20T09:32:05.768Z,58.76
2023-05-20T09:33:05.732Z,58.43
2023-05-20T09:34:05.845Z,58.86
2023-05-20T09:35:05.661Z,58.99
2023-05-20T09:36:05.572Z,59.89
2023-05-20T09:37:05.592Z,59.39
2023-05-20T09:38:05.575Z,60.42
2023-05-20T09:39:05.620Z,59.06
2023-05-20T09:40:05.585Z,58.99
2023-05-20T09:41:05.504Z,58.29
2023-05-20T09:42:07.121Z,58.18
2023-05-20T09:43:05.536Z,58.89
2023-05-20T09:44:05.508Z,58.86
2023-05-20T09:45:05.601Z,57.93
2023-05-20T09:46:05.538Z,58.23
2023-05-20T09:47:07.721Z,57.33
2023-05-20T09:48:05.492Z,57.90
2023-05-20T09:49:05.432Z,58.13
2023-05-20T09:50:05.443Z,58.26
2023-05-20T09:51:05.417Z,58.18
2023-05-20T09:52:06.111Z,58.39
2023-05-20T09:53:05.448Z,57.63
2023-05-20T09:54:05.397Z,57.00
2023-05-20T09:55:05.439Z,57.17
2023-05-20T09:56:05.416Z,56.57
2023-05-20T09:57:05.337Z,56.17
2023-05-20T09:58:05.376Z,57.03
2023-05-20T09:59:05.327Z,56.90
2023-05-20T10:00:05.416Z,56.60
2023-05-20T10:01:05.576Z,56.40
2023-05-20T10:02:05.315Z,56.17
2023-05-20T10:03:05.399Z,55.87
2023-05-20T10:04:05.368Z,56.17
2023-05-20T10:05:05.267Z,56.40
2023-05-20T10:06:05.286Z,56.17
2023-05-20T10:07:05.291Z,55.77
2023-05-20T10:08:05.235Z,55.37
2023-05-20T10:09:05.218Z,55.67
2023-05-20T10:10:05.228Z,55.44
2023-05-20T10:11:05.228Z,54.74
2023-05-20T10:12:05.529Z,54.35
2023-05-20T10:13:05.877Z,54.67
2023-05-20T10:14:05.206Z,55.07
2023-05-20T10:15:05.153Z,54.97
2023-05-20T10:16:05.320Z,55.47
2023-05-20T10:17:05.154Z,56.35
2023-05-20T10:18:05.472Z,55.02
2023-05-20T10:19:05.169Z,54.82
2023-05-20T10:20:06.659Z,53.89
2023-05-20T10:21:05.132Z,53.09
2023-05-20T10:22:05.104Z,53.69
2023-05-20T10:23:05.144Z,53.59
2023-05-20T10:24:05.129Z,53.09
2023-05-20T10:25:05.777Z,53.69
2023-05-20T10:26:05.090Z,54.99
2023-05-20T10:27:05.045Z,54.69
2023-05-20T10:28:05.787Z,52.87
2023-05-20T10:29:05.026Z,52.97
2023-05-20T10:30:05.032Z,52.67
2023-05-20T10:31:05.006Z,52.97
2023-05-20T10:32:05.021Z,53.57
2023-05-20T10:33:05.273Z,53.79
2023-05-20T10:34:05.799Z,53.92
2023-05-20T10:35:04.953Z,54.57
2023-05-20T10:36:04.957Z,54.67
2023-05-20T10:37:06.699Z,54.24
2023-05-20T10:38:05.446Z,54.55
2023-05-20T10:39:05.005Z,54.42
2023-05-20T10:40:04.912Z,54.44
2023-05-20T10:41:04.924Z,54.35
2023-05-20T10:42:04.915Z,54.44
2023-05-20T10:43:04.887Z,55.17
2023-05-20T10:44:05.624Z,55.27
2023-05-20T10:45:04.847Z,54.97
2023-05-20T10:46:07.483Z,54.74
2023-05-20T10:48:04.920Z,55.37
2023-05-20T10:49:04.887Z,54.27
2023-05-20T10:50:04.831Z,54.87
2023-05-20T10:51:05.090Z,55.40
2023-05-20T10:52:04.993Z,54.87
2023-05-20T10:53:05.838Z,54.57
2023-05-20T10:54:04.802Z,55.67
2023-05-20T10:55:04.742Z,55.17
2023-05-20T10:56:04.753Z,55.07
2023-05-20T10:57:05.009Z,54.97
2023-05-20T10:58:04.765Z,54.97
2023-05-20T10:59:04.712Z,54.77
2023-05-20T11:00:04.724Z,54.74
2023-05-20T11:01:04.784Z,54.67
2023-05-20T11:02:05.134Z,55.30
2023-05-20T11:03:04.788Z,55.10
2023-05-20T11:04:04.790Z,55.40
2023-05-20T11:05:04.669Z,55.70
2023-05-20T11:06:04.656Z,55.94
2023-05-20T11:07:04.649Z,54.72
2023-05-20T11:08:13.625Z,53.89
2023-05-20T11:09:04.598Z,54.49
2023-05-20T11:10:04.662Z,53.77
2023-05-20T11:11:04.609Z,53.54
2023-05-20T11:12:04.610Z,52.32
2023-05-20T11:13:04.614Z,52.09
2023-05-20T11:14:04.646Z,50.90
2023-05-20T11:15:05.104Z,51.50
2023-05-20T11:16:04.550Z,52.02
2023-05-20T11:17:04.582Z,51.92
2023-05-20T11:18:04.583Z,51.40
2023-05-20T11:19:05.361Z,51.10
2023-05-20T11:20:04.474Z,50.90
2023-05-20T11:21:04.532Z,51.72
2023-05-20T11:22:04.493Z,51.59
2023-05-20T11:23:04.477Z,51.59
2023-05-20T11:24:04.712Z,52.42
2023-05-20T11:25:04.431Z,51.82
2023-05-20T11:26:04.463Z,51.52
2023-05-20T11:27:04.440Z,50.92
2023-05-20T11:28:04.431Z,52.25
2023-05-20T11:29:04.404Z,51.94
2023-05-20T11:30:05.191Z,51.82
2023-05-20T11:31:04.406Z,51.40
2023-05-20T11:32:04.480Z,51.89
2023-05-20T11:33:04.396Z,50.92
2023-05-20T11:34:04.463Z,50.22
2023-05-20T11:35:04.373Z,50.52
2023-05-20T11:36:08.611Z,51.20
2023-05-20T11:37:04.302Z,50.77
2023-05-20T11:38:04.294Z,50.05
2023-05-20T11:39:04.297Z,49.83
2023-05-20T11:40:05.035Z,48.73
2023-05-20T11:41:04.254Z,48.11
2023-05-20T11:42:04.253Z,48.33
2023-05-20T11:43:05.093Z,48.75
2023-05-20T11:44:04.257Z,48.55
2023-05-20T11:45:04.241Z,49.00
2023-05-20T11:46:05.099Z,50.22
2023-05-20T11:47:04.249Z,51.22
2023-05-20T11:48:04.250Z,51.94
2023-05-20T11:49:04.257Z,51.97
2023-05-20T11:50:04.248Z,52.27
2023-05-20T11:51:04.181Z,51.97
2023-05-20T11:52:04.180Z,51.12
2023-05-20T11:53:04.164Z,50.42
2023-05-20T11:54:04.149Z,50.79
2023-05-20T11:55:04.106Z,50.79
2023-05-20T11:56:04.126Z,50.49
2023-05-20T11:57:05.747Z,51.04
2023-05-20T11:58:04.096Z,50.72
2023-05-20T11:59:04.137Z,51.34
2023-05-20T12:00:04.073Z,50.40
2023-05-20T12:01:13.969Z,50.82
2023-05-20T12:02:04.054Z,51.25
2023-05-20T12:03:04.224Z,51.67
2023-05-20T12:04:04.209Z,52.67
2023-05-20T12:05:04.090Z,53.04
2023-05-20T12:06:04.071Z,52.25
2023-05-20T12:07:04.663Z,51.94
2023-05-20T12:08:03.986Z,52.57
2023-05-20T12:09:04.074Z,51.54
2023-05-20T12:10:03.976Z,51.45
2023-05-20T12:11:03.965Z,51.12
2023-05-20T12:12:03.948Z,50.60
2023-05-20T12:13:03.932Z,49.60
2023-05-20T12:14:03.975Z,50.37
2023-05-20T12:15:04.005Z,49.15
2023-05-20T12:16:03.948Z,49.55
2023-05-20T12:17:04.705Z,49.15
2023-05-20T12:18:03.948Z,49.45
2023-05-20T12:19:05.906Z,49.13
2023-05-20T12:20:03.884Z,49.87
2023-05-20T12:21:03.854Z,49.45
2023-05-20T12:22:05.104Z,49.05
2023-05-20T12:23:03.856Z,48.85
2023-05-20T12:24:04.216Z,49.45
2023-05-20T12:25:03.809Z,49.45
2023-05-20T12:26:03.817Z,49.13
2023-05-20T12:27:03.829Z,49.15
2023-05-20T12:28:04.024Z,48.65
2023-05-20T12:29:03.767Z,48.75
2023-05-20T12:30:03.801Z,49.15
2023-05-20T12:31:03.754Z,49.87
2023-05-20T12:32:03.892Z,50.30
2023-05-20T12:33:03.835Z,51.15
2023-05-20T12:34:03.762Z,51.54
2023-05-20T12:35:04.694Z,50.40
2023-05-20T12:36:03.692Z,50.05
2023-05-20T12:37:04.998Z,49.30
2023-05-20T12:38:03.685Z,49.13
2023-05-20T12:39:03.652Z,48.88
2023-05-20T12:40:03.709Z,47.99
2023-05-20T12:41:03.622Z,47.86
2023-05-20T12:42:03.636Z,47.44
2023-05-20T12:43:03.662Z,47.44
2023-05-20T12:44:03.642Z,47.42
2023-05-20T12:45:03.588Z,47.66
2023-05-20T12:46:03.633Z,48.07
2023-05-20T12:47:03.679Z,48.14
2023-05-20T12:48:03.672Z,47.42
2023-05-20T12:49:03.575Z,46.01
2023-05-20T12:50:03.567Z,45.39
2023-05-20T12:51:03.517Z,45.17
2023-05-20T12:52:08.725Z,45.76
2023-05-20T12:53:03.583Z,46.26